createdAt,value
2022-12-24T00:00:27.358Z,94290.66
2022-12-24T00:02:55.434Z,94291.19
2022-12-24T00:05:23.505Z,94275.59
2022-12-24T00:07:51.487Z,94267.50
2022-12-24T00:10:20.973Z,94259.78
2022-12-24T00:12:48.960Z,94248.41
2022-12-24T00:15:17.151Z,94267.59
2022-12-24T00:17:45.188Z,94267.38
2022-12-24T00:20:13.449Z,94272.81
2022-12-24T00:22:41.494Z,94270.28
2022-12-24T00:25:10.244Z,94272.25
2022-12-24T00:27:39.494Z,94287.56
2022-12-24T00:30:09.028Z,94268.44
2022-12-24T00:32:37.834Z,94274.22
2022-12-24T00:35:06.419Z,94288.25
2022-12-24T00:37:34.507Z,94297.97
2022-12-24T00:40:02.431Z,94313.88
2022-12-24T00:42:30.545Z,94332.59
2022-12-24T00:44:59.817Z,94329.53
2022-12-24T00:47:27.800Z,94347.13
2022-12-24T00:49:55.787Z,94358.22
2022-12-24T00:52:23.730Z,94372.56
2022-12-24T00:54:52.051Z,94375.69
2022-12-24T00:57:19.934Z,94395.59
2022-12-24T00:59:47.843Z,94410.97
2022-12-24T01:02:17.363Z,94415.53
2022-12-24T01:05:02.853Z,94420.78
2022-12-24T01:07:30.938Z,94437.50
2022-12-24T01:09:59.044Z,94465.38
2022-12-24T01:12:27.066Z,94495.63
2022-12-24T01:14:55.367Z,94533.63
2022-12-24T01:17:24.738Z,94558.38
2022-12-24T01:19:53.066Z,94570.91
2022-12-24T01:22:21.209Z,94615.88
2022-12-24T01:24:49.683Z,94634.81
2022-12-24T01:27:17.712Z,94623.59
2022-12-24T01:29:45.624Z,94640.34
2022-12-24T01:32:13.580Z,94674.28
2022-12-24T01:34:43.080Z,94696.28
2022-12-24T01:37:11.104Z,94721.06
2022-12-24T01:39:39.038Z,94746.63
2022-12-24T01:42:36.972Z,94743.44
2022-12-24T01:45:43.630Z,94749.78
2022-12-24T01:48:17.977Z,94791.94
2022-12-24T01:50:48.035Z,94815.91
2022-12-24T01:53:17.008Z,94829.59
2022-12-24T01:55:46.398Z,94858.28
2022-12-24T01:58:16.361Z,94876.06
2022-12-24T02:00:44.846Z,94898.75
2022-12-24T02:03:13.073Z,94914.34
2022-12-24T02:05:50.757Z,94927.22
2022-12-24T02:08:19.453Z,94960.44
2022-12-24T02:10:48.715Z,94992.72
2022-12-24T02:13:20.115Z,95012.78
2022-12-24T02:15:59.013Z,95042.09
2022-12-24T02:18:35.658Z,95085.25
2022-12-24T02:21:36.011Z,95080.59
2022-12-24T02:24:28.706Z,95115.34
2022-12-24T02:27:10.380Z,95140.34
2022-12-24T02:30:04.961Z,95153.00
2022-12-24T02:32:41.765Z,95195.59
2022-12-24T02:35:14.602Z,95227.13
2022-12-24T02:37:45.698Z,95248.47
2022-12-24T02:40:19.106Z,95265.25
2022-12-24T02:42:52.879Z,95281.84
2022-12-24T02:45:24.180Z,95321.72
2022-12-24T02:47:53.895Z,95357.59
2022-12-24T02:50:21.811Z,95388.00
2022-12-24T02:52:49.765Z,95430.22
2022-12-24T02:55:20.724Z,95447.97
2022-12-24T02:58:03.041Z,95472.59
2022-12-24T03:00:42.072Z,95470.25
2022-12-24T03:03:30.136Z,95500.19
2022-12-24T03:06:04.136Z,95528.38
2022-12-24T03:08:43.169Z,95549.84
2022-12-24T03:11:13.508Z,95577.97
2022-12-24T03:13:42.616Z,95593.91
2022-12-24T03:16:15.531Z,95617.94
2022-12-24T03:18:49.059Z,95646.09
2022-12-24T03:21:22.259Z,95666.06
2022-12-24T03:23:50.139Z,95676.22
2022-12-24T03:26:20.483Z,95680.97
2022-12-24T03:28:50.074Z,95695.50
2022-12-24T03:31:20.137Z,95716.19
2022-12-24T03:33:49.100Z,95725.69
2022-12-24T03:36:17.490Z,95729.38
2022-12-24T03:38:45.554Z,95744.91
2022-12-24T03:41:13.468Z,95748.41
2022-12-24T03:43:41.403Z,95763.34
2022-12-24T03:46:09.908Z,95791.09
2022-12-24T03:48:39.270Z,95803.09
2022-12-24T03:51:17.685Z,95819.25
2022-12-24T03:53:45.808Z,95822.91
2022-12-24T03:56:14.011Z,95845.69
2022-12-24T03:58:41.928Z,95843.63
2022-12-24T04:01:09.918Z,95849.00
2022-12-24T04:03:39.417Z,95865.59
2022-12-24T04:06:10.101Z,95893.97
2022-12-24T04:08:38.450Z,95899.13
2022-12-24T04:11:10.077Z,95924.38
2022-12-24T04:13:38.164Z,95942.38
2022-12-24T04:16:08.197Z,95969.28
2022-12-24T04:18:37.316Z,95966.59
2022-12-24T04:21:07.812Z,95981.13
2022-12-24T04:23:37.917Z,95998.50
2022-12-24T04:26:07.689Z,96005.13
2022-12-24T04:28:36.554Z,96028.31
2022-12-24T04:31:07.482Z,96029.38
2022-12-24T04:33:36.331Z,96039.31
2022-12-24T04:36:07.209Z,96051.31
2022-12-24T04:38:36.181Z,96065.22
2022-12-24T04:41:06.207Z,96069.97
2022-12-24T04:43:34.293Z,96086.72
2022-12-24T04:46:06.744Z,96068.13
2022-12-24T04:48:35.097Z,96071.63
2022-12-24T04:51:04.276Z,96095.63
2022-12-24T04:53:34.881Z,96088.38
2022-12-24T04:56:03.414Z,96110.75
2022-12-24T04:58:31.551Z,96118.84
2022-12-24T05:01:05.281Z,96116.59
2022-12-24T05:03:33.560Z,96128.38
2022-12-24T05:06:05.493Z,96133.75
2022-12-24T05:08:34.978Z,96133.00
2022-12-24T05:11:03.454Z,96142.69
2022-12-24T05:13:39.163Z,96139.81
2022-12-24T05:16:11.080Z,96136.88
2022-12-24T05:18:39.325Z,96163.16
2022-12-24T05:21:10.535Z,96174.16
2022-12-24T05:23:57.438Z,96194.88
2022-12-24T05:26:29.668Z,96210.59
2022-12-24T05:28:59.424Z,96232.31
2022-12-24T05:31:28.938Z,96257.75
2022-12-24T05:33:56.952Z,96283.88
2022-12-24T05:36:25.560Z,96311.22
2022-12-24T05:38:55.557Z,96325.50
2022-12-24T05:41:23.658Z,96347.63
2022-12-24T05:43:52.635Z,96343.34
2022-12-24T05:46:22.235Z,96361.78
2022-12-24T05:48:51.110Z,96362.47
2022-12-24T05:51:22.289Z,96362.03
2022-12-24T05:53:51.817Z,96368.44
2022-12-24T05:56:22.927Z,96367.56
2022-12-24T05:58:52.059Z,96383.50
2022-12-24T06:01:20.728Z,96395.88
2022-12-24T06:03:49.678Z,96397.44
2022-12-24T06:06:20.953Z,96397.16
2022-12-24T06:08:50.445Z,96406.56
2022-12-24T06:11:21.871Z,96408.56
2022-12-24T06:13:49.844Z,96414.81
2022-12-24T06:16:19.867Z,96416.88
2022-12-24T06:18:48.164Z,96428.69
2022-12-24T06:21:16.536Z,96435.13
2022-12-24T06:23:46.388Z,96431.03
2022-12-24T06:26:17.113Z,96423.94
2022-12-24T06:28:49.901Z,96432.81
2022-12-24T06:31:20.124Z,96434.66
2022-12-24T06:33:48.687Z,96433.16
2022-12-24T06:36:18.741Z,96427.22
2022-12-24T06:38:47.054Z,96415.84
2022-12-24T06:41:15.326Z,96412.97
2022-12-24T06:43:46.963Z,96419.28
2022-12-24T06:46:15.691Z,96419.78
2022-12-24T06:48:44.480Z,96434.44
2022-12-24T06:51:12.597Z,96438.78
2022-12-24T06:53:41.204Z,96445.63
2022-12-24T06:56:11.325Z,96461.97
2022-12-24T06:58:39.217Z,96460.75
2022-12-24T07:01:11.230Z,96469.03
2022-12-24T07:03:39.463Z,96485.56
2022-12-24T07:06:08.306Z,96491.56
2022-12-24T07:08:36.471Z,96485.69
2022-12-24T07:11:05.997Z,96498.06
2022-12-24T07:13:34.452Z,96483.56
2022-12-24T07:16:06.439Z,96490.50
2022-12-24T07:18:36.010Z,96499.22
2022-12-24T07:21:05.310Z,96490.03
2022-12-24T07:23:33.097Z,96514.09
2022-12-24T07:26:02.852Z,96518.63
2022-12-24T07:28:30.891Z,96511.25
2022-12-24T07:30:59.450Z,96517.38
2022-12-24T07:33:27.457Z,96522.41
2022-12-24T07:36:04.784Z,96522.25
2022-12-24T07:38:33.812Z,96521.53
2022-12-24T07:41:02.528Z,96533.38
2022-12-24T07:43:30.490Z,96534.66
2022-12-24T07:45:59.170Z,96541.09
2022-12-24T07:48:28.249Z,96560.94
2022-12-24T07:50:56.705Z,96573.81
2022-12-24T07:53:26.960Z,96558.25
2022-12-24T07:55:55.697Z,96565.56
2022-12-24T07:58:24.490Z,96587.09
2022-12-24T08:00:57.083Z,96589.06
2022-12-24T08:03:25.281Z,96584.16
2022-12-24T08:05:53.824Z,96591.41
2022-12-24T08:08:21.878Z,96585.56
2022-12-24T08:10:51.597Z,96587.66
2022-12-24T08:13:19.884Z,96581.06
2022-12-24T08:15:47.945Z,96595.06
2022-12-24T08:18:15.964Z,96593.66
2022-12-24T08:20:43.863Z,96593.50
2022-12-24T08:23:11.819Z,96592.09
2022-12-24T08:25:43.495Z,96603.88
2022-12-24T08:28:13.580Z,96601.53
2022-12-24T08:30:41.591Z,96593.66
2022-12-24T08:33:09.964Z,96581.28
2022-12-24T08:35:38.114Z,96571.72
2022-12-24T08:38:06.262Z,96556.47
2022-12-24T08:40:34.245Z,96556.59
2022-12-24T08:43:02.970Z,96529.66
2022-12-24T08:45:38.131Z,96509.53
2022-12-24T08:48:08.216Z,96500.56
2022-12-24T08:50:36.865Z,96505.16
2022-12-24T08:53:04.682Z,96482.59
2022-12-24T08:55:32.470Z,96461.28
2022-12-24T08:58:01.254Z,96456.84
2022-12-24T09:00:29.272Z,96461.38
2022-12-24T09:02:59.367Z,96458.88
2022-12-24T09:05:27.606Z,96451.78
2022-12-24T09:07:55.804Z,96449.75
2022-12-24T09:10:24.327Z,96448.50
2022-12-24T09:12:52.306Z,96449.88
2022-12-24T09:15:20.230Z,96465.13
2022-12-24T09:17:48.174Z,96443.59
2022-12-24T09:20:17.548Z,96431.69
2022-12-24T09:22:45.475Z,96452.41
2022-12-24T09:25:13.572Z,96453.41
2022-12-24T09:27:41.505Z,96544.75
2022-12-24T09:30:10.810Z,96507.13
2022-12-24T09:32:38.707Z,96496.66
2022-12-24T09:35:07.145Z,96504.44
2022-12-24T09:37:37.010Z,96501.56
2022-12-24T09:40:05.492Z,96495.16
2022-12-24T09:42:44.109Z,96498.41
2022-12-24T09:45:19.680Z,96462.44
2022-12-24T09:47:50.801Z,96459.72
2022-12-24T09:50:35.773Z,96459.28
2022-12-24T09:53:12.362Z,96458.88
2022-12-24T09:55:45.581Z,96444.06
2022-12-24T09:58:21.481Z,96424.56
2022-12-24T10:00:50.157Z,96402.97
2022-12-24T10:03:19.510Z,96391.81
2022-12-24T10:05:57.374Z,96375.22
2022-12-24T10:08:33.048Z,96364.19
2022-12-24T10:11:08.609Z,96352.59
2022-12-24T10:13:50.346Z,96350.50
2022-12-24T10:16:24.769Z,96339.53
2022-12-24T10:19:01.473Z,96336.81
2022-12-24T10:21:41.110Z,96341.78
2022-12-24T10:24:16.633Z,96347.63
2022-12-24T10:26:47.114Z,96329.59
2022-12-24T10:29:19.281Z,96328.53
2022-12-24T10:31:54.738Z,96340.94
2022-12-24T10:34:25.143Z,96331.84
2022-12-24T10:36:53.146Z,96317.78
2022-12-24T10:39:25.489Z,96319.22
2022-12-24T10:41:57.877Z,96317.56
2022-12-24T10:44:29.290Z,96315.28
2022-12-24T10:46:57.501Z,96307.19
2022-12-24T10:49:33.117Z,96313.41
2022-12-24T10:52:05.668Z,96316.31
2022-12-24T10:54:40.208Z,96305.97
2022-12-24T10:57:26.847Z,96271.31
2022-12-24T10:59:57.929Z,96274.84
2022-12-24T11:02:32.159Z,96271.31
2022-12-24T11:05:02.151Z,96271.28
2022-12-24T11:07:32.184Z,96272.56
2022-12-24T11:10:03.078Z,96247.66
2022-12-24T11:12:32.970Z,96246.41
2022-12-24T11:15:03.167Z,96234.38
2022-12-24T11:17:32.076Z,96224.66
2022-12-24T11:20:01.031Z,96220.28
2022-12-24T11:22:31.059Z,96215.28
2022-12-24T11:25:03.968Z,96221.97
2022-12-24T11:27:41.004Z,96212.19
2022-12-24T11:30:31.414Z,96193.72
2022-12-24T11:33:18.932Z,96195.19
2022-12-24T11:35:50.000Z,96187.69
2022-12-24T11:38:22.466Z,96193.72
2022-12-24T11:41:00.507Z,96206.59
2022-12-24T11:43:44.459Z,96211.56
2022-12-24T11:46:22.128Z,96205.78
2022-12-24T11:49:07.988Z,96208.66
2022-12-24T11:51:37.008Z,96197.44
2022-12-24T11:54:14.052Z,96187.91
2022-12-24T11:56:48.873Z,96175.44
2022-12-24T11:59:21.170Z,96157.59
2022-12-24T12:01:57.284Z,96162.38
2022-12-24T12:04:28.919Z,96169.25
2022-12-24T12:07:01.928Z,96150.13
2022-12-24T12:09:33.421Z,96155.09
2022-12-24T12:12:07.859Z,96149.44
2022-12-24T12:14:40.399Z,96144.91
2022-12-24T12:17:21.072Z,96142.81
2022-12-24T12:19:56.683Z,96120.16
2022-12-24T12:22:31.662Z,96132.28
2022-12-24T12:25:02.157Z,96140.13
2022-12-24T12:27:34.964Z,96131.81
2022-12-24T12:30:05.172Z,96131.81
2022-12-24T12:32:44.091Z,96120.16
2022-12-24T12:35:22.383Z,96100.41
2022-12-24T12:37:56.899Z,96099.00
2022-12-24T12:40:33.973Z,96104.88
2022-12-24T12:43:15.021Z,96106.47
2022-12-24T12:45:49.034Z,96107.97
2022-12-24T12:48:37.827Z,96120.44
2022-12-24T12:51:10.593Z,96124.38
2022-12-24T12:53:53.887Z,96122.22
2022-12-24T12:56:32.930Z,96121.41
2022-12-24T12:59:06.966Z,96115.50
2022-12-24T13:01:44.983Z,96121.75
2022-12-24T13:04:55.679Z,96132.41
2022-12-24T13:07:57.537Z,96133.38
2022-12-24T13:10:46.754Z,96163.75
2022-12-24T13:13:38.148Z,96162.50
2022-12-24T13:16:34.239Z,96179.53
2022-12-24T13:19:13.390Z,96193.03
2022-12-24T13:21:44.921Z,96221.28
2022-12-24T13:24:18.661Z,96245.78
2022-12-24T13:27:05.059Z,96237.63
2022-12-24T13:29:54.353Z,96261.97
2022-12-24T13:32:50.659Z,96273.16
2022-12-24T13:35:40.170Z,96278.09
2022-12-24T13:38:37.680Z,96320.50
2022-12-24T13:41:54.190Z,96334.00
2022-12-24T13:44:36.196Z,96335.22
2022-12-24T13:47:29.922Z,96356.81
2022-12-24T13:50:22.148Z,96372.16
2022-12-24T13:52:54.221Z,96380.88
2022-12-24T13:55:23.215Z,96398.34
2022-12-24T13:58:00.431Z,96403.13
2022-12-24T14:00:40.331Z,96436.13
2022-12-24T14:03:25.549Z,96451.50
2022-12-24T14:05:58.134Z,96480.13
2022-12-24T14:08:34.830Z,96528.84
2022-12-24T14:11:12.238Z,96540.69
2022-12-24T14:13:56.325Z,96559.50
2022-12-24T14:16:25.858Z,96558.47
2022-12-24T14:19:01.852Z,96570.06
2022-12-24T14:21:34.466Z,96566.75
2022-12-24T14:24:06.229Z,96555.03
2022-12-24T14:26:37.616Z,96544.50
2022-12-24T14:29:09.329Z,96553.63
2022-12-24T14:31:37.353Z,96547.41
2022-12-24T14:34:09.740Z,96583.53
2022-12-24T14:36:40.502Z,96600.50
2022-12-24T14:39:12.685Z,96613.53
2022-12-24T14:41:51.006Z,96603.03
2022-12-24T14:44:35.513Z,96624.97
2022-12-24T14:47:17.030Z,96646.00
2022-12-24T14:50:06.076Z,96651.72
2022-12-24T14:53:04.747Z,96638.69
2022-12-24T14:55:36.584Z,96643.44
2022-12-24T14:58:24.141Z,96647.16
2022-12-24T15:00:53.669Z,96671.75
2022-12-24T15:03:24.763Z,96675.31
2022-12-24T15:05:55.406Z,96679.28
2022-12-24T15:08:30.659Z,96695.09
2022-12-24T15:11:02.950Z,96670.09
2022-12-24T15:13:36.974Z,96675.84
2022-12-24T15:16:07.670Z,96701.72
2022-12-24T15:18:40.220Z,96732.13
2022-12-24T15:21:16.379Z,96734.84
2022-12-24T15:23:49.998Z,96715.28
2022-12-24T15:26:24.141Z,96732.28
2022-12-24T15:28:58.248Z,96748.69
2022-12-24T15:31:31.062Z,96754.41
2022-12-24T15:34:00.482Z,96748.16
2022-12-24T15:36:32.585Z,96734.25
2022-12-24T15:39:04.671Z,96747.00
2022-12-24T15:41:59.941Z,96762.88
2022-12-24T15:44:29.831Z,96773.56
2022-12-24T15:47:00.384Z,96756.94
2022-12-24T15:49:29.821Z,96770.78
2022-12-24T15:52:05.412Z,96772.28
2022-12-24T15:54:35.064Z,96780.53
2022-12-24T15:57:14.785Z,96807.91
2022-12-24T15:59:42.791Z,96811.44
2022-12-24T16:02:33.019Z,96822.28
2022-12-24T16:05:19.132Z,96832.47
2022-12-24T16:08:10.831Z,96850.94
2022-12-24T16:10:43.043Z,96871.53
2022-12-24T16:13:17.425Z,96877.94
2022-12-24T16:15:52.639Z,96882.63
2022-12-24T16:18:25.834Z,96895.31
2022-12-24T16:20:55.800Z,96912.56
2022-12-24T16:23:25.843Z,96923.81
2022-12-24T16:25:55.254Z,96938.34
2022-12-24T16:28:23.437Z,96956.47
2022-12-24T16:30:51.620Z,96975.00
2022-12-24T16:33:21.800Z,97003.75
2022-12-24T16:35:49.779Z,97013.53
2022-12-24T16:38:17.780Z,97039.44
2022-12-24T16:40:45.690Z,97064.47
2022-12-24T16:43:32.574Z,97097.75
2022-12-24T16:46:02.629Z,97098.25
2022-12-24T16:48:33.981Z,97119.88
2022-12-24T16:51:01.981Z,97156.50
2022-12-24T16:53:29.915Z,97175.13
2022-12-24T16:55:57.924Z,97186.06
2022-12-24T16:58:27.230Z,97206.00
2022-12-24T17:00:55.171Z,97217.06
2022-12-24T17:03:23.317Z,97230.72
2022-12-24T17:05:51.457Z,97256.56
2022-12-24T17:08:19.357Z,97268.50
2022-12-24T17:10:51.662Z,97280.41
2022-12-24T17:13:19.677Z,97288.81
2022-12-24T17:15:49.066Z,97286.16
2022-12-24T17:18:17.731Z,97300.06
2022-12-24T17:20:45.678Z,97313.31
2022-12-24T17:23:13.725Z,97332.44
2022-12-24T17:25:41.795Z,97340.81
2022-12-24T17:28:09.871Z,97353.19
2022-12-24T17:30:40.936Z,97367.94
2022-12-24T17:33:14.551Z,97379.81
2022-12-24T17:35:43.905Z,97410.50
2022-12-24T17:38:11.897Z,97437.84
2022-12-24T17:40:39.827Z,97450.94
2022-12-24T17:43:07.769Z,97453.25
2022-12-24T17:45:35.824Z,97466.84
2022-12-24T17:48:03.718Z,97488.31
2022-12-24T17:50:33.166Z,97482.78
2022-12-24T17:53:01.149Z,97493.69
2022-12-24T17:55:29.034Z,97502.06
2022-12-24T17:57:56.879Z,97503.53
2022-12-24T18:00:29.522Z,97540.66
2022-12-24T18:03:01.017Z,97549.47
2022-12-24T18:05:29.038Z,97575.25
2022-12-24T18:07:58.436Z,97597.41
2022-12-24T18:10:26.388Z,97597.25
2022-12-24T18:12:54.444Z,97606.31
2022-12-24T18:15:23.466Z,97616.97
2022-12-24T18:17:53.033Z,97609.53
2022-12-24T18:20:21.782Z,97616.13
2022-12-24T18:22:50.629Z,97630.31
2022-12-24T18:25:20.396Z,97637.97
2022-12-24T18:27:48.923Z,97642.97
2022-12-24T18:30:22.922Z,97655.19
2022-12-24T18:32:53.830Z,97681.03
2022-12-24T18:35:22.645Z,97692.00
2022-12-24T18:37:50.675Z,97702.63
2022-12-24T18:40:20.658Z,97717.75
2022-12-24T18:42:48.603Z,97743.31
2022-12-24T18:45:16.742Z,97753.94
2022-12-24T18:47:44.624Z,97757.91
2022-12-24T18:50:12.663Z,97770.41
2022-12-24T18:52:40.692Z,97770.56
2022-12-24T18:55:09.685Z,97775.94
2022-12-24T18:57:39.252Z,97766.22
2022-12-24T19:00:09.150Z,97771.19
2022-12-24T19:02:37.139Z,97765.81
2022-12-24T19:05:05.568Z,97777.13
2022-12-24T19:07:33.529Z,97792.25
2022-12-24T19:10:01.719Z,97801.97
2022-12-24T19:12:29.604Z,97814.25
2022-12-24T19:14:59.332Z,97826.81
2022-12-24T19:17:27.296Z,97823.09
2022-12-24T19:19:55.234Z,97827.94
2022-12-24T19:22:23.302Z,97840.38
2022-12-24T19:24:51.799Z,97854.75
2022-12-24T19:27:19.756Z,97853.47
2022-12-24T19:29:47.797Z,97869.56
2022-12-24T19:32:17.252Z,97878.69
2022-12-24T19:34:45.220Z,97892.81
2022-12-24T19:37:13.330Z,97929.84
2022-12-24T19:39:42.781Z,97942.69
2022-12-24T19:42:10.779Z,97976.44
2022-12-24T19:44:38.735Z,98004.13
2022-12-24T19:47:06.755Z,98021.53
2022-12-24T19:49:36.060Z,98034.78
2022-12-24T19:52:04.009Z,98036.63
2022-12-24T19:54:31.915Z,98033.38
2022-12-24T19:56:59.894Z,98033.66
2022-12-24T19:59:27.924Z,98016.56
2022-12-24T20:01:56.360Z,98023.06
2022-12-24T20:04:24.414Z,98014.84
2022-12-24T20:07:00.133Z,98019.13
2022-12-24T20:09:29.226Z,98020.25
2022-12-24T20:11:57.186Z,98037.44
2022-12-24T20:14:25.238Z,98069.13
2022-12-24T20:16:53.554Z,98087.03
2022-12-24T20:19:21.688Z,98114.31
2022-12-24T20:21:49.609Z,98134.97
2022-12-24T20:24:19.261Z,98146.25
2022-12-24T20:26:47.657Z,98152.63
2022-12-24T20:29:15.703Z,98158.81
2022-12-24T20:31:43.771Z,98185.53
2022-12-24T20:34:12.479Z,98202.09
2022-12-24T20:36:40.805Z,98215.50
2022-12-24T20:39:09.182Z,98227.09
2022-12-24T20:41:38.451Z,98242.22
2022-12-24T20:44:06.813Z,98253.63
2022-12-24T20:46:35.511Z,98268.22
2022-12-24T20:49:03.533Z,98266.78
2022-12-24T20:51:31.547Z,98275.41
2022-12-24T20:54:01.955Z,98269.22
2022-12-24T20:56:31.864Z,98274.59
2022-12-24T20:59:02.055Z,98247.28
2022-12-24T21:01:30.343Z,98253.38
2022-12-24T21:04:04.411Z,98270.91
2022-12-24T21:06:33.156Z,98281.22
2022-12-24T21:09:01.574Z,98284.19
2022-12-24T21:11:46.893Z,98285.59
2022-12-24T21:14:17.533Z,98298.19
2022-12-24T21:16:46.423Z,98317.25
2022-12-24T21:19:17.684Z,98325.47
2022-12-24T21:21:47.010Z,98342.13
2022-12-24T21:24:15.038Z,98345.84
2022-12-24T21:26:43.211Z,98356.00
2022-12-24T21:29:11.666Z,98368.41
2022-12-24T21:31:41.370Z,98381.16
2022-12-24T21:34:09.709Z,98382.00
2022-12-24T21:36:37.716Z,98380.19
2022-12-24T21:39:05.731Z,98382.94
2022-12-24T21:41:33.746Z,98365.94
2022-12-24T21:44:02.808Z,98368.03
2022-12-24T21:46:30.768Z,98371.69
2022-12-24T21:49:18.084Z,98385.69
2022-12-24T21:51:48.839Z,98397.81
2022-12-24T21:54:27.477Z,98419.75
2022-12-24T21:57:15.877Z,98451.84
2022-12-24T21:59:44.172Z,98468.09
2022-12-24T22:02:13.828Z,98493.56
2022-12-24T22:04:44.136Z,98499.47
2022-12-24T22:07:38.432Z,98513.75
2022-12-24T22:10:25.216Z,98506.66
2022-12-24T22:12:53.570Z,98503.00
2022-12-24T22:15:21.956Z,98519.31
2022-12-24T22:17:49.960Z,98595.22
2022-12-24T22:20:19.375Z,98570.16
2022-12-24T22:22:48.579Z,98566.47
2022-12-24T22:25:16.836Z,98559.13
2022-12-24T22:27:45.377Z,98564.38
2022-12-24T22:30:13.947Z,98545.44
2022-12-24T22:32:41.999Z,98538.03
2022-12-24T22:35:10.485Z,98539.78
2022-12-24T22:37:40.379Z,98519.97
2022-12-24T22:40:11.150Z,98509.75
2022-12-24T22:42:40.891Z,98495.91
2022-12-24T22:45:09.643Z,98479.81
2022-12-24T22:47:37.607Z,98460.91
2022-12-24T22:50:06.228Z,98447.19
2022-12-24T22:52:34.647Z,98436.59
2022-12-24T22:55:04.823Z,98405.47
2022-12-24T22:57:32.863Z,98387.38
2022-12-24T23:00:00.811Z,98359.66
2022-12-24T23:02:29.331Z,98336.94
2022-12-24T23:04:57.658Z,98308.50
2022-12-24T23:07:25.860Z,98309.34
2022-12-24T23:09:53.901Z,98303.97
2022-12-24T23:12:37.123Z,98297.28
2022-12-24T23:15:05.622Z,98306.44
2022-12-24T23:17:33.640Z,98319.06
2022-12-24T23:20:02.596Z,98317.78
2022-12-24T23:22:31.434Z,98318.22
2022-12-24T23:24:59.472Z,98312.53
2022-12-24T23:27:28.845Z,98330.50
2022-12-24T23:29:56.809Z,98340.94
2022-12-24T23:32:24.762Z,98323.72
2022-12-24T23:34:52.772Z,98340.09
2022-12-24T23:37:20.839Z,98332.44
2022-12-24T23:39:48.728Z,98328.06
2022-12-24T23:42:16.675Z,98324.69
2022-12-24T23:44:46.124Z,98312.13
2022-12-24T23:47:14.131Z,98310.25
2022-12-24T23:49:42.104Z,98311.81
2022-12-24T23:52:10.143Z,98309.03
2022-12-24T23:54:38.194Z,98307.31
2022-12-24T23:57:06.138Z,98307.78
2022-12-24T23:59:34.907Z,98319.53
